Latest Coastal Weather Observations for Hobart

IDT60701

Issued at 2:52 am EST Monday 20 May 2019 (issued every 10 minutes, with the page automatically refreshed every 10 minutes)

About coastal observations | Map of coastal stations | Coastal observations for TAS | Marine services | Other Formats
Station Details ID: 094029 Name: HOBART (ELLERSLIE ROAD) Lat: -42.89 Lon: 147.33 Height: 50.5 m
Data from the previous 72 hours. | See also: Recent months at Hobart
Date/Time
EST
Wind Sea
Height
m
Swell Vis
km
Cloud Weather Temp
°C
Press
hPa
Rain since
9am
mm
Dir  Spd
kts
Gust
kts
Height
m
Period
s
Dir
20/02:30am NW 11 17 - - - - - - - 6.1 1022.5 0.0
20/02:00am NW 9 13 - - - - - - - 7.0 1022.9 0.0
20/01:30am NW 9 13 - - - - - - - 6.6 1023.0 0.0
20/01:00am NW 9 13 - - - - - - - 6.8 1023.7 0.0
20/12:30am NNW 6 9 - - - - - - - 7.2 1023.8 0.0
20/12:00am NW 4 6 - - - - - - - 6.3 1024.2 0.0
 
Date/Time
EST
Wind Sea
Height
m
Swell Vis
km
Cloud Weather Temp
°C
Press
hPa
Rain since
9am
mm
Dir  Spd
kts
Gust
kts
Height
m
Period
s
Dir
19/11:30pm NNW 9 15 - - - - - - - 7.5 1024.3 0.0
19/11:00pm N 5 8 - - - - - - - 7.5 1024.9 0.0
19/10:30pm WNW 4 5 - - - - - - - 7.1 1025.2 0.0
19/10:00pm NW 6 7 - - - - - - - 7.4 1025.4 0.0
19/09:30pm N 4 4 - - - - - - - 7.6 1025.7 0.0
19/09:00pm CALM 0 0 - - - - - - - 8.0 1025.5 0.0
19/08:30pm CALM 0 0 - - - - - - - 8.4 1025.7 0.0
19/08:00pm CALM 0 0 - - - - - - - 9.1 1025.8 0.0
19/07:30pm W 3 4 - - - - - - - 9.2 1026.0 0.0
19/07:00pm WNW 4 5 - - - - - - - 9.6 1025.9 0.0
19/06:30pm W 4 5 - - - - - - - 10.2 1025.8 0.0
19/06:00pm WSW 4 5 - - - - - - - 10.3 1025.8 0.0
19/05:30pm W 3 6 - - - - - - - 11.0 1025.8 0.0
19/05:00pm ESE 1 3 - - - - - - - 11.5 1025.9 0.0
19/04:30pm CALM 0 0 - - - - - - - 12.4 1026.1 0.0
19/04:00pm E 4 5 - - - - - - - 12.9 1026.1 0.0
19/03:30pm ESE 5 6 - - - - - - - 13.1 1026.2 0.0
19/03:00pm E 3 6 - - - - - - - 13.2 1026.2 0.0
19/02:30pm NNW 4 5 - - - - - - - 14.4 1026.1 0.0
19/02:00pm NNW 6 7 - - - - - - - 14.7 1026.4 0.0
19/01:30pm W 1 5 - - - - - - - 15.3 1026.7 0.0
19/01:00pm NNW 6 8 - - - - - - - 14.6 1027.2 0.0
19/12:30pm NNW 4 6 - - - - - - - 14.5 1027.5 0.0
19/12:00pm NNW 5 7 - - - - - - - 13.4 1028.0 0.0
19/11:30am NNW 5 7 - - - - - - - 12.7 1028.5 0.0
19/11:00am NNW 6 9 - - - - - - - 12.2 1029.0 0.0
19/10:30am NNW 10 13 - - - - - - - 10.1 1029.3 0.0
19/10:00am NNW 7 10 - - - - - - - 9.6 1029.4 0.0
19/09:30am NNW 6 8 - - - - - - - 9.0 1029.4 0.0
19/09:00am NNW 7 10 - - - - - - - 8.0 1029.5 0.0
19/08:30am NW 7 9 - - - - - - - 7.1 1029.7 0.0
19/08:00am NW 8 11 - - - - - - - 6.7 1029.8 0.0
19/07:30am NW 9 13 - - - - - - - 6.6 1029.6 0.0
19/07:00am NW 8 11 - - - - - - - 6.7 1029.6 0.0
19/06:30am NW 7 10 - - - - - - - 6.8 1029.3 0.0
19/06:00am NNW 8 9 - - - - - - - 7.3 1029.2 0.0
19/05:30am NNW 6 9 - - - - - - - 7.6 1029.4 0.0
19/05:00am NW 5 7 - - - - - - - 7.7 1029.5 0.0
19/04:30am WNW 3 6 - - - - - - - 8.3 1029.6 0.0
19/04:00am NW 5 7 - - - - - - - 9.1 1029.8 0.0
19/03:30am CALM 0 0 - - - - - - - 9.5 1029.7 0.0
19/03:00am NW 5 7 - - - - - - - 9.0 1029.8 0.0
19/02:30am NW 6 9 - - - - - - - 9.5 1029.9 0.0
19/02:00am NNW 7 10 - - - - - - - 10.1 1030.1 0.0
19/01:30am NNW 7 9 - - - - - - - 10.9 1030.2 0.0
19/01:00am NNW 7 9 - - - - - - - 11.5 1030.4 0.0
19/12:30am NNW 6 7 - - - - - - - 11.4 1030.6 0.0
19/12:00am CALM 0 0 - - - - - - - 11.7 1030.6 0.0
 
Date/Time
EST
Wind Sea
Height
m
Swell Vis
km
Cloud Weather Temp
°C
Press
hPa
Rain since
9am
mm
Dir  Spd
kts
Gust
kts
Height
m
Period
s
Dir
18/11:30pm WSW 2 4 - - - - - - - 11.6 1030.6 0.0
18/11:00pm WSW 1 4 - - - - - - - 11.6 1030.6 0.0
18/10:30pm CALM 0 1 - - - - - - - 11.6 1030.7 0.0
18/10:00pm WSW 3 4 - - - - - - - 11.5 1030.6 0.0
18/09:30pm SW 4 5 - - - - - - - 11.9 1030.5 0.0
18/09:00pm WSW 5 6 - - - - - - - 11.8 1030.3 0.0
18/08:30pm SW 5 5 - - - - - - - 11.4 1030.0 0.0
18/08:00pm SSW 4 5 - - - - - - - 11.1 1029.7 0.0
18/07:30pm SW 2 4 - - - - - - - 11.2 1029.4 0.0
18/07:00pm ENE 1 4 - - - - - - - 11.8 1029.1 0.0
18/06:30pm ESE 2 5 - - - - - - - 12.9 1028.9 0.0
18/06:00pm ESE 5 8 - - - - - - - 13.6 1028.7 0.0
18/05:30pm ESE 7 9 - - - - - - - 14.5 1028.4 0.0
18/05:00pm SW 2 3 - - - - - - - 15.5 1028.4 0.0
18/04:30pm WSW 1 4 - - - - - - - 16.4 1028.0 0.0
18/04:00pm SSE 7 10 - - - - - - - 16.7 1027.7 0.0
18/03:30pm ENE 5 7 - - - - - - - 17.1 1027.6 0.0
18/03:00pm E 6 8 - - - - - - - 17.5 1027.3 0.0
18/02:30pm ENE 7 9 - - - - - - - 17.5 1027.1 0.0
18/02:00pm ENE 8 10 - - - - - - - 17.7 1027.2 0.0
18/01:30pm E 7 9 - - - - - - - 17.5 1027.2 0.0
18/01:00pm E 5 8 - - - - - - - 17.8 1027.1 0.0
18/12:30pm ENE 7 10 - - - - - - - 18.2 1027.3 0.0
18/12:00pm NE 5 9 - - - - - - - 17.8 1027.4 0.0
18/11:30am NE 8 10 - - - - - - - 18.0 1027.5 0.0
18/11:00am NE 7 9 - - - - - - - 17.8 1027.9 0.0
18/10:30am NE 4 6 - - - - - - - 17.0 1027.9 0.0
18/10:00am NE 6 9 - - - - - - - 16.3 1028.1 0.0
18/09:30am NNE 5 8 - - - - - - - 15.9 1028.1 0.0
18/09:00am SSW 3 5 - - - - - - - 13.8 1028.0 0.0
18/08:30am WNW 5 7 - - - - - - - 12.3 1027.7 0.0
18/08:00am SW 5 8 - - - - - - - 11.6 1027.9 0.0
18/07:30am W 5 7 - - - - - - - 11.0 1027.5 0.0
18/07:00am SSE 6 8 - - - - - - - 12.3 1027.0 0.0
18/06:30am SE 8 11 - - - - - - - 13.4 1026.5 0.0
18/06:00am SE 5 8 - - - - - - - 13.6 1025.9 0.0
18/05:30am NNW 5 8 - - - - - - - 14.0 1025.1 0.0
18/05:00am WNW 8 19 - - - - - - - 14.6 1024.9 0.0
18/04:30am NW 10 14 - - - - - - - 14.1 1025.2 0.0
18/04:00am NW 12 18 - - - - - - - 14.3 1025.1 0.0
18/03:30am WNW 12 16 - - - - - - - 14.6 1025.3 0.0
18/03:00am NW 14 20 - - - - - - - 15.1 1025.1 0.0
18/02:30am WSW 12 20 - - - - - - - 16.4 1025.3 0.0
18/02:00am WNW 14 21 - - - - - - - 14.6 1025.0 0.0
18/01:30am WNW 4 7 - - - - - - - 13.8 1025.3 0.0
18/01:00am NE 5 10 - - - - - - - 14.5 1025.3 0.0
18/12:30am NNW 7 13 - - - - - - - 14.7 1025.0 0.0
18/12:00am WNW 6 12 - - - - - - - 14.7 1024.7 0.0
 
Date/Time
EST
Wind Sea
Height
m
Swell Vis
km
Cloud Weather Temp
°C
Press
hPa
Rain since
9am
mm
Dir  Spd
kts
Gust
kts
Height
m
Period
s
Dir
17/11:30pm SW 5 9 - - - - - - - 14.2 1024.9 0.0
17/11:00pm E 3 7 - - - - - - - 14.3 1025.0 0.0
17/10:30pm S 4 9 - - - - - - - 14.7 1025.2 0.0
17/10:00pm WNW 14 19 - - - - - - - 15.1 1024.9 0.0
17/09:30pm NW 15 22 - - - - - - - 15.0 1024.8 0.0
17/09:00pm NW 13 18 - - - - - - - 14.9 1024.5 0.0
17/08:30pm NW 13 19 - - - - - - - 14.7 1024.5 0.0
17/08:00pm NW 15 21 - - - - - - - 15.1 1024.3 0.0
17/07:30pm NW 13 21 - - - - - - - 15.1 1024.4 0.0
17/07:00pm NW 13 17 - - - - - - - 15.2 1024.2 0.0
17/06:30pm NW 14 19 - - - - - - - 15.4 1024.1 0.0
17/06:00pm NW 15 23 - - - - - - - 15.2 1023.6 0.0
17/05:30pm NW 12 17 - - - - - - - 15.4 1023.2 0.0
17/05:00pm NW 9 17 - - - - - - - 15.4 1023.2 0.0
17/04:30pm NW 9 15 - - - - - - - 15.6 1023.0 0.0
17/04:00pm NW 12 23 - - - - - - - 15.9 1022.9 0.0
17/03:30pm NNW 13 19 - - - - - - - 15.9 1022.6 0.0
17/03:00pm NNW 12 16 - - - - - - - 16.0 1022.3 0.0
17/02:39pm NW 16 26 - - - - - - - 16.0 1022.3 0.0
17/02:30pm NW 17 24 - - - - - - - 16.0 1022.3 0.0
17/02:00pm NW 19 29 - - - - - - - 16.0 1022.1 0.0
17/01:52pm NNW 18 28 - - - - - - - 16.0 1022.0 0.0
17/01:30pm NNW 16 23 - - - - - - - 16.1 1022.1 0.0
17/01:17pm NNW 16 26 - - - - - - - 16.4 1022.3 0.0
17/01:00pm NNW 16 24 - - - - - - - 16.8 1022.3 0.0
17/12:50pm NNW 16 27 - - - - - - - 16.9 1022.2 0.0
17/12:30pm NNW 15 24 - - - - - - - 17.0 1022.3 0.0
17/12:00pm NNW 14 20 - - - - - - - 17.1 1022.6 0.0
17/11:49am NNW 15 25 - - - - - - - 16.6 1022.6 0.0
17/11:30am NNW 16 21 - - - - - - - 16.5 1022.9 0.0
17/11:00am NNW 13 19 - - - - - - - 16.4 1023.0 0.0
17/10:30am NNW 10 15 - - - - - - - 15.7 1022.9 0.0
17/10:00am NNE 10 14 - - - - - - - 14.0 1023.2 0.0
17/09:30am N 12 19 - - - - - - - 12.4 1023.3 0.0
17/09:00am NNW 11 15 - - - - - - - 11.4 1023.5 0.0
17/08:30am NW 9 15 - - - - - - - 10.4 1023.5 0.0
17/08:00am NW 10 16 - - - - - - - 9.7 1023.4 0.0
17/07:30am W 7 12 - - - - - - - 8.5 1023.2 0.0
17/07:00am WNW 7 15 - - - - - - - 8.8 1022.9 0.0
17/06:30am NNW 11 17 - - - - - - - 9.1 1022.7 0.0
17/06:00am W 5 8 - - - - - - - 8.4 1023.1 0.0
17/05:30am WSW 6 8 - - - - - - - 7.8 1023.0 0.0
17/05:00am WNW 4 7 - - - - - - - 8.5 1022.7 0.0
17/04:30am WSW 2 5 - - - - - - - 7.7 1022.7 0.0
17/04:00am N 6 8 - - - - - - - 8.4 1022.5 0.0
17/03:30am WNW 6 8 - - - - - - - 7.8 1022.7 0.0
17/03:00am W 5 7 - - - - - - - 7.3 1022.9 0.0

Other formats

Comma delimited format used in spreadsheet applications
http://www.bom.gov.au/fwo/IDT60701/IDT60701.94970.axf

JavaScript Object Notation format (JSON) in row-major order
http://www.bom.gov.au/fwo/IDT60701/IDT60701.94970.json

Data quality

Most of these data are generated automatically and are frequently updated. Quality checks on data are not normally performed. It is possible for incorrect values to appear. Refer to information at About Latest Weather Observations and please check the disclaimer before using these data.